Big Pine Key, FL (33043)

10:42 PM EDT on May 03, 2015 (GMT -0400)
RAWS | | Change Station
CLOSE
Current Station
Personal Weather Station
Location: Summerland Key, FL
Elevation: 9 ft
Nearby Weather Stations

Elev 9 ft 24.72 °N, 81.39 °W | Updated 1 hour ago

Partly Cloudy
Partly Cloudy
76 °F
Feels Like 78 °F
N
12
Wind Variable Wind from ENE
Gusts 22.0 mph

Today
High -- | Low -- °F
--% Chance of Precip.
Yesterday
High -- | Low -- °F
Precip. -- in
6:48 AM 7:56 PM
Full, 100% visible
Pressure 30.06 in
Visibility 10.0 miles
Clouds Few 3500 ft
Mostly Cloudy 25000 ft
Heat Index 78 °F
Dew Point 62 °F
Humidity 62%
Rainfall in
Snow Depth Not available.
UV 0 out of 12
Pollen 5.00 out of 12
Air Quality Not available.
Flu Activity Local Activity
METAR KNQX 040153Z 08020G24KT 10SM FEW035 BKN250 24/17 A3007 RMK AO2 SLP180 T02440167 $

More Conditions Fewer Conditions

Pressure 30.06 in
Visibility 10.0 miles
Clouds Few 3500 ft
Mostly Cloudy 25000 ft
Heat Index 78 °F
Dew Point 62 °F
Humidity 62%
Rainfall in
Snow Depth Not available.
UV 0 out of 12
Pollen 5.00 out of 12
Air Quality Not available.
Flu Activity Local Activity
METAR KNQX 040153Z 08020G24KT 10SM FEW035 BKN250 24/17 A3007 RMK AO2 SLP180 T02440167 $

More Conditions Fewer Conditions

Nepal has a long way to go to dig out and rebuild from a devastating earthquake. We have teamed up with several charities and organizations to make contributing to the relief effort as easy as possible.
How you can help: Portlight Strategies | Red Cross

10-Day Weather Forecast

Almanac

Astronomy

May. 03, 2015 Rise Set
Actual Time
Civil Twilight
Nautical Twilight
Astronomical Twilight
Moon
Length of Visible Light
Length of Day
Tomorrow will be .
, % of the Moon is Illuminated

Today's Extremes

State Highs State Lows

Community

WunderPhotos

Upload Photos

1,818,482 photos uploaded!

WunderBlogs® & News

Nearby

Air Quality

  Air Quality AQ Index Pollutant
Not available.

Snow Depth

Station Depth Elevation

Earthquake Activity

City Distance Mag. Time & Date
Minimum magnitude displayed is 2.5.

Coastal Water Temperatures

Place Temperature

Stations

Nearby Weather Stations

Station Location Temp. Windchill Dew Point Humidity Wind Precip. Elev Updated Type